KLAS

Mc Carran International Airport

Las Vegas, Nevada, USA
KLAS 181731Z 1818/1924 05009KT P6SM SCT120 SCT250 FM190300 VRB05KT P6SM FEW150 SCT250
Issued Valid From Valid To
Jan-18 @ 17:31 UTC
(3 hours ago)
Jan-18 @ 18:00 UTC
(3 hours ago)
Jan-20 @ 00:00 UTC
(-1 days ago)
Jan-18 @ 18:00 to Jan-19 @ 03:00
KLAS 181731Z 1818/1924 05009KT P6SM SCT120 SCT250
Wind Visibility Clouds
50° at 9 knots Greater than 6 miles
  • Scattered at 12,000' AGL
  • Scattered at 25,000' AGL
From Jan-19 @ 03:00 to Jan-20 @ 00:00
FM190300 VRB05KT P6SM FEW150 SCT250
Wind Visibility Clouds
Variable at 5 knots Greater than 6 miles
  • Few at 15,000' AGL
  • Scattered at 25,000' AGL
KLAS 181731Z 1818/1924 05009KT P6SM SCT120 SCT250 FM190300 VRB05KT P6SM FEW150 SCT250
Issued Jan-18 @ 17:31 UTC
(3 hours ago)
Valid From Jan-18 @ 18:00 UTC
(3 hours ago)
Valid To Jan-20 @ 00:00 UTC
(-1 days ago)
Jan-18 @ 18:00 - Jan-19 @ 03:00
Wind Visibility
50° at 9 knots Greater than 6 miles
Clouds
  • Scattered at 12,000' AGL
  • Scattered at 25,000' AGL
From Jan-19 @ 03:00 - Jan-20 @ 00:00
Wind Visibility
Variable at 5 knots Greater than 6 miles
Clouds
  • Few at 15,000' AGL
  • Scattered at 25,000' AGL